Columbia, Iowa
Current Conditions -  °F | °C
As of 5:55 PM on Wednesday 26 Nov 2014 (Local Time) from KOXV Reporting Station
Light Snow Light Snow  
Wind Chill: 21°   Ceiling: 500
Heat Index: 30°   Visibility: 2.5mi
Dew Point: 28°   Wind: 12mph
Humidity: 93%   Direction: 360°N
Pressure: 30.15"   Gusts: 17mph
Location:  41.18°N, 93.15°W
Report Text: KOXV 262355Z AUTO 36010G15KT 2 1/2SM -SN OVC005 M01/M02 A3015 RMK AO2
Loading
Personal Weather Stations






























Interactive Weather Map New forecast layout! Learn more

10-Day Weather Forecast

Advertisements
Track Severe Weather on mobile